Schneifelwetter: Wetterstation Hallschlag, 537 m . NN
Wetterdaten: Freitag, 20.06.2008
Datum Zeit Temp. A. Temp. 2 Feuchte A. Luftdruck Regen Wind Richtung Richtung Sonnenschein Helligkeit T Regen Taupunkt Windchill
20.06.2008 00:01 11,8 C 10,9 C 88 % 1015 hPa 0,0 l/m 12,7 km/h (3 Bft) W22.5 270 0 min 0 lux 0,00 min 9,9 C 8,3 C
20.06.2008 00:16 11,3 C 10,4 C 88 % 1016 hPa 0,0 l/m 11,0 km/h (2 Bft) W22.5 260 0 min 0 lux 0,00 min 9,4 C 8,5 C
20.06.2008 00:32 10,8 C 9,8 C 88 % 1016 hPa 0,0 l/m 15,8 km/h (3 Bft) W22.5 270 0 min 0 lux 0,00 min 8,9 C 5,8 C
20.06.2008 00:47 10,4 C 9,4 C 89 % 1016 hPa 0,0 l/m 16,2 km/h (3 Bft) W22.5 260 0 min 0 lux 0,00 min 8,7 C 5,1 C
20.06.2008 01:02 10,0 C 9,1 C 89 % 1016 hPa 0,0 l/m 13,5 km/h (3 Bft) W22.5 265 0 min 0 lux 0,00 min 8,3 C 5,8 C
20.06.2008 01:17 9,9 C 8,7 C 89 % 1016 hPa 0,0 l/m 17,5 km/h (3 Bft) W22.5 270 0 min 0 lux 0,00 min 8,2 C 4,0 C
20.06.2008 01:32 9,4 C 8,1 C 88 % 1016 hPa 0,0 l/m 12,7 km/h (3 Bft) W-SW45 255 0 min 0 lux 0,00 min 7,5 C 5,5 C
20.06.2008 01:47 8,8 C 7,3 C 88 % 1017 hPa 0,0 l/m 5,5 km/h (1 Bft) W-SW22.5 240 0 min 0 lux 0,00 min 6,9 C 8,8 C
20.06.2008 02:02 8,2 C 6,8 C 89 % 1017 hPa 0,0 l/m 8,7 km/h (2 Bft) W-SW22.5 245 0 min 0 lux 0,00 min 6,5 C 6,5 C
20.06.2008 02:17 7,7 C 6,1 C 88 % 1017 hPa 0,0 l/m 7,4 km/h (2 Bft) W-SW 240 0 min 0 lux 0,00 min 5,8 C 6,9 C
20.06.2008 02:32 7,4 C 5,8 C 89 % 1017 hPa 0,0 l/m 4,5 km/h (1 Bft) W-SW 245 0 min 0 lux 0,00 min 5,7 C 7,4 C
20.06.2008 02:47 7,2 C 5,6 C 90 % 1017 hPa 0,0 l/m 6,0 km/h (2 Bft) W-SW 245 0 min 0 lux 0,00 min 5,7 C 7,2 C
20.06.2008 03:02 6,9 C 5,6 C 90 % 1017 hPa 0,0 l/m 7,2 km/h (2 Bft) W-SW 255 0 min 0 lux 0,00 min 5,4 C 6,2 C
20.06.2008 03:17 6,8 C 5,2 C 91 % 1017 hPa 0,0 l/m 6,5 km/h (2 Bft) W 260 0 min 0 lux 0,00 min 5,4 C 6,7 C
20.06.2008 03:32 6,7 C 5,3 C 91 % 1017 hPa 0,0 l/m 7,3 km/h (2 Bft) W22.5 260 0 min 0 lux 0,00 min 5,3 C 6,0 C
20.06.2008 03:47 6,5 C 5,2 C 91 % 1017 hPa 0,0 l/m 5,9 km/h (2 Bft) W 260 0 min 0 lux 0,00 min 5,1 C 6,5 C
20.06.2008 04:02 6,3 C 4,9 C 91 % 1017 hPa 0,0 l/m 4,8 km/h (1 Bft) W 260 0 min 0 lux 0,00 min 4,9 C 6,3 C
20.06.2008 04:17 6,1 C 4,8 C 91 % 1017 hPa 0,0 l/m 5,6 km/h (1 Bft) W-SW22.5 255 0 min 0 lux 0,00 min 4,7 C 6,1 C
20.06.2008 04:32 6,1 C 4,9 C 92 % 1017 hPa 0,0 l/m 9,4 km/h (2 Bft) W-SW22.5 250 0 min 0 lux 0,00 min 4,9 C 3,7 C
20.06.2008 04:47 6,1 C 4,9 C 92 % 1017 hPa 0,0 l/m 8,5 km/h (2 Bft) W22.5 265 0 min 0 lux 0,00 min 4,9 C 4,4 C
20.06.2008 05:02 5,9 C 4,6 C 92 % 1017 hPa 0,0 l/m 5,6 km/h (1 Bft) W 260 0 min 85 lux 0,00 min 4,7 C 5,9 C
20.06.2008 05:17 5,6 C 4,2 C 92 % 1017 hPa 0,0 l/m 3,9 km/h (1 Bft) W-SW 255 0 min 526 lux 0,00 min 4,4 C 5,6 C
20.06.2008 05:32 5,6 C 3,9 C 92 % 1017 hPa 0,0 l/m 4,0 km/h (1 Bft) W 260 0 min 1,00 klux 0,00 min 4,4 C 5,6 C
20.06.2008 05:47 5,3 C 3,4 C 92 % 1017 hPa 0,0 l/m 0,0 km/h (0 Bft) W 260 0 min 4,93 klux 0,00 min 4,1 C 5,3 C
20.06.2008 06:02 5,6 C 3,3 C 93 % 1017 hPa 0,0 l/m 0,0 km/h (0 Bft) W 260 0 min 7,03 klux 0,00 min 4,6 C 5,6 C
20.06.2008 06:16 6,2 C 3,3 C 93 % 1017 hPa 0,0 l/m 3,7 km/h (1 Bft) W 265 0 min 12,0 klux 0,00 min 5,2 C 6,2 C
20.06.2008 06:31 6,6 C 3,4 C 91 % 1017 hPa 0,3 l/m 0,0 km/h (0 Bft) W-NW 290 0 min 7,81 klux 15,00 min 5,2 C 6,6 C
20.06.2008 06:46 6,8 C 3,5 C 91 % 1017 hPa 0,0 l/m 0,0 km/h (0 Bft) W-NW 290 0 min 15,5 klux 0,00 min 5,4 C 6,8 C
20.06.2008 07:01 8,5 C 4,1 C 90 % 1017 hPa 0,0 l/m 0,0 km/h (0 Bft) W-NW 290 0 min 25,3 klux 0,00 min 7,0 C 8,5 C
20.06.2008 07:17 9,7 C 5,1 C 87 % 1017 hPa 0,0 l/m 0,0 km/h (0 Bft) W-NW 290 0 min 25,7 klux 0,00 min 7,6 C 9,7 C
20.06.2008 07:32 9,9 C 6,7 C 85 % 1018 hPa 0,0 l/m 10,9 km/h (2 Bft) W-SW45 250 0 min 17,9 klux 0,00 min 7,5 C 7,0 C
20.06.2008 07:46 9,8 C 7,1 C 86 % 1018 hPa 0,0 l/m 8,1 km/h (2 Bft) W-SW22.5 255 0 min 17,9 klux 0,00 min 7,6 C 8,6 C
20.06.2008 08:01 10,2 C 8,0 C 85 % 1018 hPa 0,0 l/m 15,1 km/h (3 Bft) W-SW45 240 0 min 32,6 klux 0,00 min 7,8 C 5,3 C
20.06.2008 08:16 10,8 C 8,7 C 83 % 1018 hPa 0,0 l/m 15,0 km/h (3 Bft) W-SW22.5 255 0 min 31,1 klux 0,00 min 8,0 C 6,1 C
20.06.2008 08:31 11,1 C 9,3 C 83 % 1018 hPa 0,0 l/m 14,9 km/h (3 Bft) W-SW22.5 250 0 min 28,1 klux 0,00 min 8,3 C 6,5 C
20.06.2008 08:46 11,4 C 10,0 C 83 % 1018 hPa 0,0 l/m 11,1 km/h (2 Bft) W-SW45 240 0 min 29,1 klux 0,00 min 8,6 C 8,6 C
20.06.2008 09:02 12,0 C 10,5 C 81 % 1018 hPa 0,0 l/m 16,0 km/h (3 Bft) W-SW22.5 255 0 min 30,1 klux 0,00 min 8,8 C 7,2 C
20.06.2008 09:17 12,6 C 11,1 C 78 % 1018 hPa 0,0 l/m 16,5 km/h (3 Bft) W-SW22.5 255 0 min 43,9 klux 0,00 min 8,9 C 7,7 C
20.06.2008 09:31 13,3 C 11,7 C 76 % 1018 hPa 0,0 l/m 21,1 km/h (4 Bft) W-SW22.5 255 0 min 51,3 klux 0,00 min 9,2 C 7,3 C
20.06.2008 09:46 14,1 C 12,4 C 75 % 1018 hPa 0,0 l/m 20,1 km/h (4 Bft) W-SW67.5 245 15 min 64,3 klux 0,00 min 9,7 C 8,6 C
20.06.2008 10:01 14,8 C 13,0 C 73 % 1019 hPa 0,0 l/m 21,0 km/h (4 Bft) SW45 225 15 min 69,4 klux 0,00 min 10,0 C 9,2 C
20.06.2008 10:16 15,4 C 13,5 C 69 % 1019 hPa 0,0 l/m 21,7 km/h (4 Bft) W45 270 15 min 75,6 klux 0,00 min 9,7 C 9,9 C
20.06.2008 10:31 16,4 C 14,1 C 68 % 1019 hPa 0,0 l/m 19,1 km/h (3 Bft) W-SW45 250 15 min 76,1 klux 0,00 min 10,5 C 11,8 C
20.06.2008 10:47 16,8 C 14,7 C 64 % 1019 hPa 0,0 l/m 23,3 km/h (4 Bft) W-SW67.5 240 16 min 79,0 klux 0,00 min 10,0 C 11,4 C
20.06.2008 11:02 17,0 C 15,3 C 61 % 1019 hPa 0,0 l/m 28,0 km/h (4 Bft) SW45 230 15 min 81,0 klux 0,00 min 9,4 C 10,8 C
20.06.2008 11:17 17,9 C 15,8 C 60 % 1019 hPa 0,0 l/m 24,8 km/h (4 Bft) W-SW67.5 240 15 min 83,2 klux 0,00 min 10,0 C 12,6 C
20.06.2008 11:31 18,3 C 16,5 C 57 % 1019 hPa 0,0 l/m 29,5 km/h (5 Bft) W45 265 14 min 88,2 klux 0,00 min 9,6 C 12,4 C
20.06.2008 11:46 18,5 C 16,9 C 57 % 1019 hPa 0,0 l/m 30,6 km/h (5 Bft) W-SW22.5 255 15 min 97,8 klux 0,00 min 9,8 C 12,5 C
20.06.2008 12:01 19,1 C 17,4 C 57 % 1019 hPa 0,0 l/m 29,0 km/h (5 Bft) SW45 225 15 min 95,3 klux 0,00 min 10,4 C 13,6 C
20.06.2008 12:16 19,0 C 18,3 C 54 % 1019 hPa 0,0 l/m 30,8 km/h (5 Bft) SW67.5 225 15 min 99 klux 0,00 min 9,5 C 13,2 C
20.06.2008 12:31 19,0 C 18,9 C 54 % 1018 hPa 0,0 l/m 29,1 km/h (5 Bft) W-SW67.5 250 15 min 104 klux 0,00 min 9,5 C 13,4 C
20.06.2008 12:47 18,9 C 19,7 C 55 % 1018 hPa 0,0 l/m 31,5 km/h (5 Bft) W-SW45 245 16 min 105 klux 0,00 min 9,7 C 13,0 C
20.06.2008 13:02 19,2 C 20,4 C 56 % 1019 hPa 0,0 l/m 33,9 km/h (5 Bft) SW22.5 230 15 min 113 klux 0,00 min 10,2 C 13,1 C
20.06.2008 13:16 19,4 C 20,3 C 53 % 1019 hPa 0,0 l/m 38,4 km/h (5 Bft) W-SW45 250 14 min 115 klux 0,00 min 9,6 C 13,0 C
20.06.2008 13:31 18,6 C 19,8 C 57 % 1019 hPa 0,0 l/m 31,7 km/h (5 Bft) W-SW22.5 250 15 min 85,2 klux 0,00 min 9,9 C 12,5 C
20.06.2008 13:46 19,2 C 20,6 C 57 % 1019 hPa 0,0 l/m 33,1 km/h (5 Bft) W-SW22.5 255 15 min 112 klux 0,00 min 10,5 C 13,2 C
20.06.2008 14:01 19,2 C 20,8 C 56 % 1019 hPa 0,0 l/m 26,8 km/h (4 Bft) W-SW67.5 250 15 min 87,2 klux 0,00 min 10,2 C 14,0 C
20.06.2008 14:16 19,4 C 21,6 C 55 % 1019 hPa 0,0 l/m 32,5 km/h (5 Bft) W-SW45 240 15 min 96,7 klux 0,00 min 10,1 C 13,6 C
20.06.2008 14:32 19,6 C 21,9 C 56 % 1018 hPa 0,0 l/m 26,5 km/h (4 Bft) SW67.5 235 16 min 111 klux 0,00 min 10,6 C 14,6 C
20.06.2008 14:47 19,6 C 22,9 C 55 % 1019 hPa 0,0 l/m 39,0 km/h (6 Bft) SW45 230 15 min 106 klux 0,00 min 10,3 C 13,2 C
20.06.2008 15:01 19,1 C 21,7 C 55 % 1019 hPa 0,0 l/m 30,1 km/h (5 Bft) W-SW67.5 250 14 min 101 klux 0,00 min 9,8 C 13,4 C
20.06.2008 15:16 19,1 C 21,3 C 57 % 1018 hPa 0,0 l/m 35,4 km/h (5 Bft) W22.5 260 15 min 88,6 klux 0,00 min 10,4 C 12,8 C
20.06.2008 15:31 18,6 C 20,1 C 55 % 1019 hPa 0,0 l/m 34,5 km/h (5 Bft) W-SW67.5 240 15 min 101 klux 0,00 min 9,4 C 12,2 C
20.06.2008 15:46 18,4 C 20,8 C 56 % 1018 hPa 0,0 l/m 30,3 km/h (5 Bft) W22.5 265 15 min 104 klux 0,00 min 9,5 C 12,4 C
20.06.2008 16:01 19,2 C 21,6 C 54 % 1018 hPa 0,0 l/m 33,0 km/h (5 Bft) W-SW22.5 255 15 min 87,6 klux 0,00 min 9,7 C 13,2 C
20.06.2008 16:17 19,0 C 21,4 C 54 % 1019 hPa 0,0 l/m 30,1 km/h (5 Bft) W45 265 16 min 100 klux 0,00 min 9,5 C 13,3 C
20.06.2008 16:32 18,8 C 21,4 C 53 % 1019 hPa 0,0 l/m 28,8 km/h (4 Bft) W45 265 15 min 98,3 klux 0,00 min 9,0 C 13,2 C
20.06.2008 16:47 18,7 C 20,3 C 55 % 1019 hPa 0,0 l/m 32,2 km/h (5 Bft) W-SW67.5 255 0 min 31,9 klux 0,00 min 9,5 C 12,6 C
20.06.2008 17:01 19,0 C 21,4 C 56 % 1019 hPa 0,0 l/m 31,5 km/h (5 Bft) W45 265 14 min 95,0 klux 0,00 min 10,0 C 13,1 C
20.06.2008 17:16 18,7 C 20,4 C 54 % 1019 hPa 0,0 l/m 31,8 km/h (5 Bft) W-SW45 250 15 min 90,7 klux 0,00 min 9,2 C 12,7 C
20.06.2008 17:31 18,4 C 19,0 C 55 % 1019 hPa 0,0 l/m 27,8 km/h (4 Bft) W45 260 0 min 39,1 klux 0,00 min 9,2 C 12,8 C
20.06.2008 17:46 17,5 C 17,7 C 56 % 1019 hPa 0,0 l/m 21,2 km/h (4 Bft) W22.5 265 0 min 8,51 klux 0,00 min 8,6 C 12,7 C
20.06.2008 18:01 17,5 C 19,0 C 59 % 1019 hPa 0,0 l/m 26,1 km/h (4 Bft) W45 260 0 min 46,0 klux 0,00 min 9,4 C 11,8 C
20.06.2008 18:17 18,0 C 18,4 C 57 % 1019 hPa 0,0 l/m 20,0 km/h (4 Bft) W-SW45 255 0 min 29,7 klux 0,00 min 9,4 C 13,6 C
20.06.2008 18:32 17,4 C 17,3 C 58 % 1019 hPa 0,0 l/m 21,3 km/h (4 Bft) W22.5 270 0 min 11,1 klux 0,00 min 9,1 C 12,6 C
20.06.2008 18:46 16,9 C 17,3 C 59 % 1019 hPa 0,0 l/m 16,6 km/h (3 Bft) W45 270 0 min 23,3 klux 0,00 min 8,8 C 13,0 C
20.06.2008 19:01 17,0 C 17,3 C 60 % 1019 hPa 0,0 l/m 13,8 km/h (3 Bft) W45 270 0 min 18,2 klux 0,00 min 9,2 C 14,0 C
20.06.2008 19:16 17,0 C 17,0 C 60 % 1019 hPa 0,0 l/m 14,2 km/h (3 Bft) W22.5 260 0 min 15,1 klux 0,00 min 9,2 C 13,9 C
20.06.2008 19:31 16,8 C 16,8 C 62 % 1018 hPa 0,0 l/m 14,0 km/h (3 Bft) W-SW22.5 250 0 min 12,8 klux 0,00 min 9,5 C 13,7 C
20.06.2008 19:46 17,0 C 16,9 C 62 % 1018 hPa 0,0 l/m 12,1 km/h (2 Bft) W22.5 260 0 min 16,9 klux 0,00 min 9,7 C 14,5 C
20.06.2008 20:02 17,0 C 16,9 C 62 % 1018 hPa 0,0 l/m 8,6 km/h (2 Bft) SW22.5 225 0 min 15,5 klux 0,00 min 9,7 C 15,9 C
20.06.2008 20:17 16,8 C 16,5 C 63 % 1018 hPa 0,0 l/m 9,2 km/h (2 Bft) W-SW 250 0 min 8,48 klux 0,00 min 9,7 C 15,4 C
20.06.2008 20:32 16,4 C 16,3 C 64 % 1018 hPa 0,0 l/m 9,0 km/h (2 Bft) W-SW22.5 240 0 min 6,21 klux 0,00 min 9,6 C 15,1 C
20.06.2008 20:46 16,1 C 15,8 C 65 % 1018 hPa 0,0 l/m 6,9 km/h (2 Bft) W-SW22.5 245 0 min 5,31 klux 0,00 min 9,5 C 15,8 C
20.06.2008 21:01 15,8 C 15,5 C 66 % 1019 hPa 0,0 l/m 0,6 km/h (0 Bft) W-SW 240 0 min 3,29 klux 0,00 min 9,5 C 15,8 C
20.06.2008 21:16 15,6 C 15,2 C 67 % 1019 hPa 0,0 l/m 0,0 km/h (0 Bft) W-SW 240 0 min 1,39 klux 0,00 min 9,5 C 15,6 C
20.06.2008 21:31 15,3 C 15,0 C 68 % 1019 hPa 0,0 l/m 0,5 km/h (0 Bft) W-SW 245 0 min 1,16 klux 0,00 min 9,4 C 15,3 C
20.06.2008 21:46 15,1 C 14,6 C 70 % 1019 hPa 0,0 l/m 7,6 km/h (2 Bft) W 270 0 min 260 lux 0,00 min 9,7 C 14,4 C
20.06.2008 22:02 14,5 C 14,0 C 72 % 1019 hPa 0,0 l/m 19,6 km/h (3 Bft) W22.5 265 0 min 71 lux 0,00 min 9,5 C 9,2 C
20.06.2008 22:17 14,0 C 13,4 C 74 % 1019 hPa 0,0 l/m 11,4 km/h (2 Bft) W22.5 260 0 min 42 lux 0,00 min 9,4 C 11,4 C
20.06.2008 22:31 13,6 C 12,9 C 75 % 1019 hPa 0,0 l/m 8,7 km/h (2 Bft) W22.5 275 0 min 19 lux 0,00 min 9,3 C 12,2 C
20.06.2008 22:46 13,4 C 12,7 C 76 % 1019 hPa 0,0 l/m 0,3 km/h (0 Bft) W-SW 250 0 min 0 lux 0,00 min 9,3 C 13,4 C
20.06.2008 23:01 13,2 C 12,6 C 76 % 1019 hPa 0,0 l/m 0,0 km/h (0 Bft) W-SW 250 0 min 0 lux 0,00 min 9,1 C 13,2 C
20.06.2008 23:16 13,2 C 12,6 C 77 % 1019 hPa 0,0 l/m 0,0 km/h (0 Bft) W-SW 250 0 min 0 lux 0,00 min 9,3 C 13,2 C
20.06.2008 23:31 13,1 C 12,6 C 79 % 1019 hPa 0,0 l/m 0,0 km/h (0 Bft) W-SW 250 0 min 0 lux 0,00 min 9,5 C 13,1 C
20.06.2008 23:47 13,1 C 12,6 C 79 % 1020 hPa 0,0 l/m 0,0 km/h (0 Bft) W-SW 250 0 min 0 lux 0,00 min 9,5 C 13,1 C
_ Min-Zeit 05:47 06:02 13:16 00:01 - 05:47 - - - - - 05:47 04:32
Minimum _ 5,3 C 3,3 C 53 % 1015 hPa - 0,0 km/h (0 Bft) - - - - - 4,1 C 3,7 C
_ Max-Zeit 14:32 14:47 06:02 23:47 06:31 14:47 - - 10:47 13:16 06:31 14:32 20:02
Maximum _ 19,6 C 22,9 C 93 % 1020 hPa 0,3 l/m 39,0 km/h
SW (6 Bft)
- - 16 min 115 klux 15,00 min 10,6 C 15,9 C
Durchschnitt _ 13,6 C 13,0 C 73 % 1018 hPa #0,3 l/m 15,8 km/h (3 Bft) W-SW - #7:30 h 36,3 klux #15 min. 8,4 C 10,4 C